Time;durP1;ratioP1;P1;durP2;ratioP2;P2;SDS_P1;SDS_P2;PMS_P1;PMS_P2;Temp;Humidity;BMP_temperature;BMP_pressure;BME280_temperature;BME280_humidity;BME280_pressure;Samples;Min_cycle;Max_cycle;Signal;HPM_P1;HPM_P2
2024/04/21 00:00:46;;;;;;;12.13;8.60;;;9.00;72.30;;;;;;5347670;26;20376;-79
2024/04/21 00:03:12;;;;;;;14.15;8.93;;;9.00;72.20;;;;;;5345245;26;20016;-78
2024/04/21 00:05:37;;;;;;;19.42;8.90;;;9.00;71.90;;;;;;5346875;26;20015;-79
2024/04/21 00:08:04;;;;;;;15.00;8.93;;;9.10;71.90;;;;;;5344911;26;20005;-81
2024/04/21 00:10:29;;;;;;;11.30;9.10;;;9.10;72.00;;;;;;5322134;26;20001;-80
2024/04/21 00:12:55;;;;;;;15.68;9.20;;;9.10;71.90;;;;;;5328145;26;20002;-79
2024/04/21 00:15:21;;;;;;;12.98;7.90;;;9.10;71.90;;;;;;5310274;26;21981;-79
2024/04/21 00:17:47;;;;;;;13.35;7.90;;;9.10;71.70;;;;;;5327183;26;20004;-79
2024/04/21 00:20:13;;;;;;;10.55;7.40;;;9.10;71.60;;;;;;5345091;26;20009;-80
2024/04/21 00:22:38;;;;;;;11.85;8.35;;;9.20;71.30;;;;;;5339279;26;20096;-80
2024/04/21 00:25:04;;;;;;;12.80;7.97;;;9.20;71.30;;;;;;5334178;26;20016;-81
2024/04/21 00:27:30;;;;;;;12.52;7.72;;;9.20;71.20;;;;;;5338861;26;20435;-77
2024/04/21 00:29:56;;;;;;;9.85;5.95;;;9.20;71.10;;;;;;5330650;26;20015;-80
2024/04/21 00:32:22;;;;;;;8.70;7.22;;;9.20;71.10;;;;;;5346505;26;20358;-78
2024/04/21 00:34:48;;;;;;;10.85;7.50;;;9.20;71.30;;;;;;5347285;26;20005;-79
2024/04/21 00:37:14;;;;;;;13.88;6.47;;;9.20;71.20;;;;;;5345128;26;20385;-80
2024/04/21 00:39:39;;;;;;;10.63;6.28;;;9.20;71.60;;;;;;5335470;26;20001;-80
2024/04/21 00:42:05;;;;;;;10.18;6.40;;;9.20;71.80;;;;;;5334349;26;20004;-79
2024/04/21 00:44:31;;;;;;;13.63;6.72;;;9.10;71.70;;;;;;5346032;26;20009;-79
2024/04/21 00:46:57;;;;;;;10.07;6.38;;;9.10;71.70;;;;;;5338992;26;20013;-79
2024/04/21 00:49:24;;;;;;;12.90;5.63;;;9.20;71.80;;;;;;5341133;26;20015;-78
2024/04/21 00:51:50;;;;;;;13.23;7.05;;;9.20;71.60;;;;;;5338771;26;20020;-80
2024/04/21 00:54:16;;;;;;;11.20;6.15;;;9.20;71.90;;;;;;5332752;26;20051;-79
2024/04/21 00:56:42;;;;;;;9.15;6.90;;;9.20;72.00;;;;;;5345921;26;20001;-80
2024/04/21 00:59:11;;;;;;;8.90;6.13;;;9.10;72.00;;;;;;5345976;26;20005;-81
2024/04/21 01:01:37;;;;;;;10.55;5.88;;;9.10;72.50;;;;;;5345622;26;20020;-80
2024/04/21 01:04:04;;;;;;;7.80;5.75;;;9.10;71.70;;;;;;5346114;26;20442;-79
2024/04/21 01:06:30;;;;;;;10.57;5.13;;;9.20;71.70;;;;;;5345889;26;20342;-81
2024/04/21 01:08:56;;;;;;;8.35;6.03;;;9.10;71.60;;;;;;5331134;26;20512;-80
2024/04/21 01:11:22;;;;;;;10.70;6.07;;;9.10;71.80;;;;;;5344584;26;20013;-79
2024/04/21 01:13:47;;;;;;;11.77;6.65;;;9.10;72.00;;;;;;5320510;26;20005;-79
2024/04/21 01:16:14;;;;;;;9.07;6.35;;;9.10;72.40;;;;;;5348631;26;20054;-79
2024/04/21 01:18:40;;;;;;;12.15;6.22;;;9.20;72.70;;;;;;5349765;26;20446;-78
2024/04/21 01:21:06;;;;;;;10.45;7.05;;;9.10;72.60;;;;;;5347089;26;20016;-80
2024/04/21 01:23:34;;;;;;;8.88;5.88;;;9.10;72.60;;;;;;5345723;26;20462;-79
2024/04/21 01:26:00;;;;;;;10.98;6.85;;;9.20;72.90;;;;;;5346025;26;20031;-81
2024/04/21 01:28:26;;;;;;;13.65;6.43;;;9.20;72.70;;;;;;5343485;26;20001;-80
2024/04/21 01:30:53;;;;;;;13.32;6.68;;;9.20;72.40;;;;;;5345300;26;20008;-79
2024/04/21 01:33:19;;;;;;;12.93;7.82;;;9.20;72.10;;;;;;5346180;26;20004;-80
2024/04/21 01:35:48;;;;;;;10.63;7.60;;;9.20;72.40;;;;;;5347433;26;20001;-78
2024/04/21 01:38:14;;;;;;;10.48;7.03;;;9.30;72.40;;;;;;5340397;26;20381;-79
2024/04/21 01:40:39;;;;;;;9.52;6.90;;;9.30;72.20;;;;;;5346812;26;20059;-79
2024/04/21 01:43:05;;;;;;;12.88;6.53;;;9.30;72.10;;;;;;5346939;26;20001;-80
2024/04/21 01:45:31;;;;;;;11.10;6.65;;;9.30;72.10;;;;;;5345543;26;20075;-80
2024/04/21 01:47:57;;;;;;;13.70;6.75;;;9.30;72.20;;;;;;5345504;26;20466;-79
2024/04/21 01:50:24;;;;;;;13.77;6.70;;;9.40;72.20;;;;;;5345595;26;20005;-80
2024/04/21 01:52:50;;;;;;;15.00;6.40;;;9.40;72.40;;;;;;5324627;26;20001;-80
2024/04/21 01:55:16;;;;;;;16.02;6.45;;;9.40;72.60;;;;;;5345159;26;20016;-80
2024/04/21 01:57:42;;;;;;;13.68;6.55;;;9.40;72.60;;;;;;5345035;26;20332;-80
2024/04/21 02:00:08;;;;;;;11.68;6.03;;;9.30;72.40;;;;;;5343128;26;20001;-79
2024/04/21 02:02:34;;;;;;;12.82;5.78;;;9.30;72.20;;;;;;5343513;26;20005;-80
2024/04/21 02:05:00;;;;;;;9.57;5.78;;;9.30;72.00;;;;;;5330593;26;20016;-79
2024/04/21 02:07:26;;;;;;;15.65;6.35;;;9.20;72.00;;;;;;5330463;26;20000;-79
2024/04/21 02:09:52;;;;;;;13.73;6.20;;;9.20;72.20;;;;;;5345146;26;20004;-77
2024/04/21 02:12:17;;;;;;;10.35;6.07;;;9.20;72.40;;;;;;5344076;26;20393;-80
2024/04/21 02:14:43;;;;;;;11.38;5.80;;;9.10;72.40;;;;;;5345415;26;19997;-79
2024/04/21 02:17:09;;;;;;;17.00;5.45;;;9.20;72.40;;;;;;5344687;26;20027;-79
2024/04/21 02:19:35;;;;;;;10.90;5.60;;;9.20;72.60;;;;;;5344680;26;20077;-79
2024/04/21 02:22:00;;;;;;;8.85;5.68;;;9.20;72.60;;;;;;5339841;26;20001;-78
2024/04/21 02:24:26;;;;;;;11.00;5.30;;;9.30;72.70;;;;;;5318068;26;20005;-79
2024/04/21 02:26:52;;;;;;;13.18;5.75;;;9.30;72.50;;;;;;5335400;26;20016;-80
2024/04/21 02:29:18;;;;;;;8.30;5.30;;;9.30;72.20;;;;;;5347719;26;20426;-77
2024/04/21 02:31:44;;;;;;;9.00;5.35;;;9.30;72.10;;;;;;5348186;26;20020;-78
2024/04/21 02:34:10;;;;;;;13.23;5.53;;;9.30;72.10;;;;;;5348433;26;20094;-79
2024/04/21 02:36:36;;;;;;;12.73;4.90;;;9.40;72.10;;;;;;5348424;26;20350;-79
2024/04/21 02:39:01;;;;;;;7.47;4.78;;;9.40;72.20;;;;;;5348145;26;20016;-79
2024/04/21 02:41:27;;;;;;;14.63;5.38;;;9.40;71.80;;;;;;5341415;26;19997;-77
2024/04/21 02:43:53;;;;;;;8.85;4.53;;;9.40;71.80;;;;;;5341994;26;20013;-78
2024/04/21 02:46:20;;;;;;;7.20;4.55;;;9.40;71.90;;;;;;5348126;26;19997;-79
2024/04/21 02:48:46;;;;;;;;;;;9.40;71.80;;;;;;5350662;26;20041;-79
2024/04/21 02:51:12;;;;;;;12.63;4.60;;;9.40;71.70;;;;;;5349289;26;19996;-79
2024/04/21 02:53:38;;;;;;;5.18;3.70;;;9.40;71.80;;;;;;5349221;26;20008;-77
2024/04/21 02:56:03;;;;;;;8.07;4.28;;;9.40;71.60;;;;;;5344430;26;20075;-79
2024/04/21 02:58:29;;;;;;;5.53;3.33;;;9.40;71.60;;;;;;5328450;26;20012;-80
2024/04/21 03:00:55;;;;;;;6.80;3.28;;;9.40;71.40;;;;;;5347792;26;20020;-79
2024/04/21 03:03:21;;;;;;;5.57;3.40;;;9.40;71.30;;;;;;5340112;26;20002;-78
2024/04/21 03:05:54;;;;;;;7.25;3.00;;;9.50;71.20;;;;;;5323037;26;20009;-80
2024/04/21 03:08:20;;;;;;;5.90;3.50;;;9.50;71.20;;;;;;5322463;26;20012;-77
2024/04/21 03:10:46;;;;;;;6.15;3.30;;;9.60;71.20;;;;;;5320124;26;20002;-78
2024/04/21 03:13:12;;;;;;;5.57;2.80;;;9.70;71.20;;;;;;5347659;26;20388;-79
2024/04/21 03:15:38;;;;;;;7.32;3.28;;;9.70;71.00;;;;;;5347217;26;20005;-79
2024/04/21 03:18:04;;;;;;;6.00;2.92;;;9.70;70.80;;;;;;5347353;26;20424;-78
2024/04/21 03:20:29;;;;;;;6.63;3.75;;;9.70;70.60;;;;;;5347168;26;20464;-79
2024/04/21 03:22:55;;;;;;;4.47;3.05;;;9.80;70.80;;;;;;5347534;26;20005;-78
2024/04/21 03:25:21;;;;;;;5.40;3.13;;;9.80;70.90;;;;;;5347400;26;20001;-79
2024/04/21 03:27:47;;;;;;;5.20;3.40;;;9.70;70.70;;;;;;5342724;26;20000;-80
2024/04/21 03:30:13;;;;;;;6.60;3.70;;;9.60;70.80;;;;;;5335482;26;20005;-78
2024/04/21 03:32:38;;;;;;;8.20;3.35;;;9.60;71.00;;;;;;5339603;26;20009;-79
2024/04/21 03:35:04;;;;;;;6.60;3.70;;;9.70;71.20;;;;;;5331818;26;19997;-78
2024/04/21 03:37:30;;;;;;;5.72;3.33;;;9.70;71.10;;;;;;5346313;26;19997;-78
2024/04/21 03:39:58;;;;;;;5.20;3.10;;;9.80;70.80;;;;;;5347386;26;20335;-78
2024/04/21 03:42:23;;;;;;;6.88;3.55;;;9.70;70.80;;;;;;5341765;26;20002;-79
2024/04/21 03:45:15;;;;;;;5.25;3.88;;;9.80;71.00;;;;;;5326417;26;20006;-79
2024/04/21 03:47:40;;;;;;;9.15;4.25;;;9.70;71.40;;;;;;5337858;26;20490;-79
2024/04/21 03:50:08;;;;;;;5.20;3.50;;;9.70;71.60;;;;;;5349178;26;20011;-79
2024/04/21 03:52:34;;;;;;;7.70;3.38;;;9.70;72.50;;;;;;5347081;26;20012;-79
2024/04/21 03:54:59;;;;;;;9.00;3.60;;;9.60;74.20;;;;;;5347067;26;20466;-78
2024/04/21 03:57:29;;;;;;;5.45;3.97;;;9.40;74.90;;;;;;5345196;26;20011;-77
2024/04/21 03:59:55;;;;;;;8.93;3.60;;;9.30;75.20;;;;;;5341045;26;19997;-78
2024/04/21 04:02:21;;;;;;;7.15;4.10;;;9.30;76.00;;;;;;5333664;26;20316;-77
2024/04/21 04:04:47;;;;;;;6.22;4.05;;;9.40;76.30;;;;;;5343769;26;20015;-79
2024/04/21 04:07:12;;;;;;;4.75;3.35;;;9.40;75.30;;;;;;5327719;26;20013;-79
2024/04/21 04:09:38;;;;;;;5.95;3.38;;;9.40;74.70;;;;;;5318904;26;20006;-80
2024/04/21 04:12:04;;;;;;;5.82;4.00;;;9.50;75.40;;;;;;5322631;26;20086;-79
2024/04/21 04:14:30;;;;;;;9.43;4.15;;;9.50;75.50;;;;;;5346988;26;20041;-80
2024/04/21 04:16:56;;;;;;;5.93;3.83;;;9.50;76.30;;;;;;5346226;26;20001;-79
2024/04/21 04:19:22;;;;;;;5.65;3.80;;;9.50;75.30;;;;;;5346508;26;20005;-80
2024/04/21 04:21:48;;;;;;;7.03;4.53;;;9.60;74.60;;;;;;5346717;26;20012;-80
2024/04/21 04:24:13;;;;;;;9.45;3.15;;;9.60;74.90;;;;;;5342579;26;20438;-80
2024/04/21 04:26:48;;;;;;;4.78;3.25;;;9.60;75.00;;;;;;5345749;26;19997;-80
2024/04/21 04:29:13;;;;;;;4.60;3.40;;;9.70;75.20;;;;;;5344675;26;20009;-79
2024/04/21 04:31:39;;;;;;;3.97;2.50;;;9.80;74.70;;;;;;5344542;26;20460;-78
2024/04/21 04:34:05;;;;;;;6.38;2.85;;;9.90;73.40;;;;;;5346458;26;20009;-80
2024/04/21 04:36:31;;;;;;;3.83;2.70;;;9.90;73.10;;;;;;5338982;26;20327;-80
2024/04/21 04:38:56;;;;;;;6.13;2.83;;;10.00;72.90;;;;;;5335945;26;20236;-78
2024/04/21 04:41:22;;;;;;;5.10;3.13;;;10.10;72.90;;;;;;5335862;26;20012;-80
2024/04/21 04:43:48;;;;;;;7.68;3.05;;;10.30;72.50;;;;;;5333123;26;20009;-78
2024/04/21 04:46:14;;;;;;;3.10;2.38;;;10.30;71.20;;;;;;5344640;26;20438;-78
2024/04/21 04:48:40;;;;;;;4.40;2.67;;;10.30;71.10;;;;;;5346262;26;20450;-80
2024/04/21 04:51:06;;;;;;;6.10;3.00;;;10.30;71.00;;;;;;5346864;26;20338;-79
2024/04/21 04:53:32;;;;;;;3.35;3.00;;;10.20;71.10;;;;;;5344940;26;20008;-80
2024/04/21 04:55:58;;;;;;;4.38;2.55;;;10.30;71.30;;;;;;5320160;26;20037;-80
2024/04/21 04:58:23;;;;;;;3.58;2.75;;;10.20;71.10;;;;;;5323580;26;20002;-78
2024/04/21 05:00:49;;;;;;;7.45;2.90;;;10.20;71.30;;;;;;5334363;26;20349;-79
2024/04/21 05:03:15;;;;;;;4.28;2.85;;;10.20;71.30;;;;;;5322986;26;20001;-79
2024/04/21 05:05:41;;;;;;;6.03;3.50;;;10.20;71.10;;;;;;5344074;26;20015;-80
2024/04/21 05:08:07;;;;;;;5.35;3.75;;;10.20;71.10;;;;;;5332619;26;20508;-79
2024/04/21 05:10:32;;;;;;;5.68;3.92;;;10.20;71.10;;;;;;5323554;26;20002;-80
2024/04/21 05:12:58;;;;;;;4.78;3.65;;;10.20;71.20;;;;;;5323489;26;20015;-78
2024/04/21 05:15:25;;;;;;;7.15;3.67;;;10.20;71.50;;;;;;5341173;26;20001;-78
2024/04/21 05:17:51;;;;;;;5.45;3.25;;;10.20;71.30;;;;;;5343680;26;20015;-78
2024/04/21 05:20:17;;;;;;;5.75;3.00;;;10.30;71.60;;;;;;5345606;26;20013;-79
2024/04/21 05:22:43;;;;;;;8.52;3.63;;;10.40;71.30;;;;;;5345777;26;20005;-80
2024/04/21 05:25:08;;;;;;;4.85;3.47;;;10.40;71.10;;;;;;5334920;26;20060;-79
2024/04/21 05:27:34;;;;;;;10.02;3.85;;;10.50;70.90;;;;;;5344604;26;19997;-79
2024/04/21 05:30:00;;;;;;;10.07;3.60;;;10.50;70.40;;;;;;5341087;26;19997;-82
2024/04/21 05:32:26;;;;;;;6.07;4.13;;;10.50;70.60;;;;;;5315280;26;20078;-79
2024/04/21 05:34:52;;;;;;;10.13;4.88;;;10.50;70.70;;;;;;5345791;26;20450;-80
2024/04/21 05:37:17;;;;;;;5.10;3.10;;;10.50;71.30;;;;;;5326816;26;20002;-80
2024/04/21 05:39:43;;;;;;;10.80;4.68;;;10.40;71.00;;;;;;5333102;26;20002;-80
2024/04/21 05:42:09;;;;;;;12.77;5.40;;;10.30;71.50;;;;;;5334127;26;20005;-79
2024/04/21 05:44:35;;;;;;;9.73;3.00;;;10.30;71.60;;;;;;5345116;26;20019;-79
2024/04/21 05:47:01;;;;;;;7.65;3.55;;;10.30;71.30;;;;;;5345327;26;20005;-81
2024/04/21 05:49:29;;;;;;;9.07;4.03;;;10.30;71.30;;;;;;5345164;26;20086;-81
2024/04/21 05:51:55;;;;;;;8.93;3.75;;;10.30;71.40;;;;;;5337492;26;20013;-81
2024/04/21 05:54:20;;;;;;;9.25;3.63;;;10.30;71.20;;;;;;5336755;26;20381;-80
2024/04/21 05:56:46;;;;;;;6.13;4.30;;;10.30;72.10;;;;;;5341364;26;20019;-80
2024/04/21 05:59:12;;;;;;;4.53;3.30;;;10.30;71.50;;;;;;5345215;26;20001;-80
2024/04/21 06:01:38;;;;;;;8.15;3.72;;;10.30;71.40;;;;;;5328794;26;20000;-79
2024/04/21 06:04:04;;;;;;;7.35;5.68;;;10.30;71.60;;;;;;5337956;26;20017;-79
2024/04/21 06:06:33;;;;;;;8.52;3.85;;;10.20;71.90;;;;;;5341565;26;20442;-79
2024/04/21 06:08:59;;;;;;;9.98;5.63;;;10.20;71.60;;;;;;5346097;26;20074;-80
2024/04/21 06:11:24;;;;;;;5.90;4.20;;;10.20;72.50;;;;;;5322617;26;20451;-82
2024/04/21 06:13:50;;;;;;;6.50;3.92;;;10.20;72.20;;;;;;5342222;26;20078;-79
2024/04/21 06:16:16;;;;;;;8.48;4.55;;;10.20;72.40;;;;;;5344957;26;20048;-78
2024/04/21 06:18:42;;;;;;;13.48;4.30;;;10.20;72.50;;;;;;5320506;26;20012;-79
2024/04/21 06:21:08;;;;;;;7.50;3.75;;;10.20;71.90;;;;;;5345025;26;20001;-79
2024/04/21 06:23:34;;;;;;;7.28;3.42;;;10.20;72.20;;;;;;5344718;26;20342;-78
2024/04/21 06:26:00;;;;;;;16.83;7.25;;;10.20;72.00;;;;;;5342952;26;20000;-78
2024/04/21 06:28:25;;;;;;;7.45;4.15;;;10.30;73.10;;;;;;5344628;26;20479;-80
2024/04/21 06:30:51;;;;;;;7.78;4.53;;;10.40;72.10;;;;;;5344091;26;19997;-79
2024/04/21 06:33:17;;;;;;;5.90;4.45;;;10.40;71.90;;;;;;5340565;26;20005;-79
2024/04/21 06:35:44;;;;;;;7.63;4.60;;;10.40;71.60;;;;;;5342889;26;20399;-80
2024/04/21 06:38:11;;;;;;;6.93;5.32;;;10.40;72.10;;;;;;5344077;26;20005;-79
2024/04/21 06:40:37;;;;;;;8.82;5.03;;;10.40;71.90;;;;;;5344399;26;20369;-79
2024/04/21 06:43:02;;;;;;;7.35;4.53;;;10.50;72.00;;;;;;5343013;26;20016;-80
2024/04/21 06:45:28;;;;;;;10.38;5.07;;;10.50;72.00;;;;;;5343994;26;20495;-78
2024/04/21 06:47:54;;;;;;;4.68;4.10;;;10.60;72.00;;;;;;5343795;26;20115;-78
2024/04/21 06:50:20;;;;;;;8.40;4.95;;;10.60;71.50;;;;;;5332971;26;19997;-78
2024/04/21 06:52:46;;;;;;;8.88;5.40;;;10.60;71.60;;;;;;5343837;26;20023;-78
2024/04/21 06:55:15;;;;;;;8.88;5.10;;;10.70;72.00;;;;;;5344101;26;20074;-78
2024/04/21 06:57:43;;;;;;;12.93;4.97;;;10.80;71.70;;;;;;5343395;26;20033;-78
2024/04/21 07:00:10;;;;;;;9.65;4.38;;;10.80;71.10;;;;;;5327294;26;20439;-79
2024/04/21 07:02:36;;;;;;;9.07;5.47;;;10.80;71.00;;;;;;5319958;26;20006;-80
2024/04/21 07:05:03;;;;;;;7.53;4.73;;;10.90;71.30;;;;;;5335682;26;20245;-78
2024/04/21 07:07:28;;;;;;;10.43;5.55;;;11.00;71.00;;;;;;5333749;26;20005;-79
2024/04/21 07:09:54;;;;;;;13.77;7.53;;;11.10;70.90;;;;;;5343469;26;20019;-79
2024/04/21 07:12:20;;;;;;;11.15;5.22;;;11.20;70.80;;;;;;5321513;26;20001;-78
2024/04/21 07:14:46;;;;;;;9.70;4.50;;;11.40;70.30;;;;;;5347056;26;20005;-80
2024/04/21 07:17:14;;;;;;;7.90;3.70;;;11.70;73.80;;;;;;5347121;26;20038;-81
2024/04/21 07:19:40;;;;;;;8.18;3.20;;;11.70;71.50;;;;;;5338115;26;20520;-80
2024/04/21 07:22:06;;;;;;;9.32;4.47;;;11.70;73.00;;;;;;5347272;26;20009;-77
2024/04/21 07:24:32;;;;;;;8.50;4.53;;;11.90;73.30;;;;;;5347866;26;20338;-79
2024/04/21 07:26:57;;;;;;;10.75;4.28;;;12.00;71.40;;;;;;5348000;26;20012;-79
2024/04/21 07:29:23;;;;;;;13.63;4.43;;;12.10;72.00;;;;;;5340831;26;20289;-79
2024/04/21 07:31:49;;;;;;;10.75;4.78;;;12.20;70.80;;;;;;5333890;26;20013;-80
2024/04/21 07:34:15;;;;;;;9.25;5.30;;;12.60;70.90;;;;;;5346996;26;20850;-79
2024/04/21 07:36:41;;;;;;;7.70;4.10;;;13.10;70.50;;;;;;5346712;26;20416;-79
2024/04/21 07:39:07;;;;;;;12.93;5.30;;;13.50;72.50;;;;;;5346737;26;20008;-80
2024/04/21 07:41:34;;;;;;;6.97;3.53;;;13.80;72.30;;;;;;5344811;26;20033;-78
2024/04/21 07:44:00;;;;;;;12.82;3.97;;;14.40;69.00;;;;;;5346544;26;20078;-78
2024/04/21 07:46:26;;;;;;;10.05;4.28;;;15.10;70.60;;;;;;5346520;26;20462;-77
2024/04/21 07:48:51;;;;;;;7.28;4.03;;;15.60;58.20;;;;;;5346963;26;20017;-79
2024/04/21 07:51:17;;;;;;;7.35;3.10;;;15.50;57.50;;;;;;5346680;26;20027;-80
2024/04/21 07:53:43;;;;;;;11.80;3.75;;;15.50;57.80;;;;;;5346578;26;20461;-77
2024/04/21 07:56:09;;;;;;;7.95;3.58;;;15.80;58.10;;;;;;5326383;26;20402;-79
2024/04/21 07:58:35;;;;;;;7.70;3.28;;;15.80;57.50;;;;;;5337107;26;20017;-80
2024/04/21 08:01:11;;;;;;;7.25;2.80;;;16.20;55.40;;;;;;5319375;26;20080;-80
2024/04/21 08:03:37;;;;;;;5.38;2.95;;;17.90;54.00;;;;;;5310602;26;20002;-80
2024/04/21 08:06:03;;;;;;;7.75;3.25;;;;;;;;;;5310036;26;20483;-79
2024/04/21 08:08:29;;;;;;;3.53;2.63;;;18.70;49.30;;;;;;5310304;26;20083;-80
2024/04/21 08:11:01;;;;;;;11.98;4.18;;;18.00;50.00;;;;;;5317148;26;20001;-80
2024/04/21 08:13:27;;;;;;;6.65;2.78;;;17.60;50.40;;;;;;5337386;26;20008;-80
2024/04/21 08:15:54;;;;;;;8.90;3.03;;;18.00;50.40;;;;;;5344707;26;20480;-81
2024/04/21 08:18:20;;;;;;;3.75;2.38;;;18.10;50.20;;;;;;5346337;26;20020;-80
2024/04/21 08:20:46;;;;;;;8.98;3.28;;;18.10;49.00;;;;;;5346345;26;20005;-80
2024/04/21 08:23:20;;;;;;;4.30;1.85;;;18.30;49.10;;;;;;5346199;26;20017;-79
2024/04/21 08:35:57;;;;;;;8.13;3.20;;;;;;;;;;5229915;27;20506;-83
2024/04/21 08:38:24;;;;;;;42.72;6.32;;;20.80;44.10;;;;;;5236538;27;20035;-79
2024/04/21 08:40:51;;;;;;;8.25;3.15;;;21.00;43.40;;;;;;5242361;27;19995;-80
2024/04/21 08:43:24;;;;;;;7.78;3.40;;;21.00;43.90;;;;;;5241553;27;19999;-84
2024/04/21 08:46:11;;;;;;;4.03;2.22;;;21.10;43.30;;;;;;5245655;27;20007;-83
2024/04/21 08:48:37;;;;;;;4.47;2.53;;;20.40;43.40;;;;;;5228271;27;20000;-83
2024/04/21 08:51:54;;;;;;;8.50;2.47;;;20.80;43.80;;;;;;5198593;27;20021;-83
2024/04/21 08:55:10;;;;;;;9.57;3.30;;;21.40;43.70;;;;;;5415368;22;20184;-80
2024/04/21 08:57:37;;;;;;;5.47;2.78;;;21.00;42.90;;;;;;5199979;27;20004;-79
2024/04/21 09:00:04;;;;;;;13.02;3.95;;;20.90;42.40;;;;;;5176843;27;20524;-82
2024/04/21 09:02:30;;;;;;;12.00;3.47;;;21.30;42.40;;;;;;5178287;27;20012;-79
2024/04/21 09:04:56;;;;;;;10.52;3.10;;;21.30;41.90;;;;;;5163681;27;20015;-76
2024/04/21 09:07:24;;;;;;;9.27;3.38;;;21.00;42.30;;;;;;5167453;27;20075;-79
2024/04/21 09:09:50;;;;;;;6.30;3.67;;;;;;;;;;5175559;27;20032;-78
2024/04/21 09:12:16;;;;;;;4.32;2.97;;;20.90;42.50;;;;;;5176966;27;20023;-79
2024/04/21 09:14:44;;;;;;;5.32;3.20;;;20.90;42.60;;;;;;5185194;27;20000;-80
2024/04/21 09:17:10;;;;;;;7.40;3.22;;;21.40;42.70;;;;;;5186330;27;20393;-80
2024/04/21 09:19:36;;;;;;;10.32;3.15;;;21.80;42.40;;;;;;5189399;27;20016;-78
2024/04/21 09:22:05;;;;;;;7.97;4.78;;;22.70;41.50;;;;;;5192138;27;20000;-76
2024/04/21 09:24:31;;;;;;;9.80;3.58;;;23.20;40.00;;;;;;5179123;27;20020;-79
2024/04/21 09:26:57;;;;;;;7.47;3.30;;;22.70;40.20;;;;;;5176927;27;20015;-79
2024/04/21 09:29:24;;;;;;;6.65;3.08;;;22.70;40.80;;;;;;5169068;27;20005;-79
2024/04/21 09:31:50;;;;;;;6.85;2.95;;;22.90;40.20;;;;;;5198156;27;20083;-79
2024/04/21 09:34:18;;;;;;;7.32;2.97;;;22.60;40.50;;;;;;5207638;27;20003;-79
2024/04/21 09:36:44;;;;;;;7.90;2.80;;;22.70;40.50;;;;;;5210203;27;20012;-79
2024/04/21 09:39:13;;;;;;;5.53;3.03;;;22.60;40.40;;;;;;5177570;27;20075;-79
2024/04/21 09:41:44;;;;;;;6.95;2.70;;;22.20;40.50;;;;;;5177463;27;20080;-78
2024/04/21 09:44:11;;;;;;;8.15;2.88;;;21.70;41.70;;;;;;5174426;27;20048;-79
2024/04/21 09:46:37;;;;;;;18.63;3.25;;;21.80;41.90;;;;;;5177269;27;20349;-79
2024/04/21 09:49:03;;;;;;;3.50;2.42;;;22.00;41.50;;;;;;5175357;27;20031;-79
2024/04/21 09:51:32;;;;;;;10.50;3.53;;;21.80;41.80;;;;;;5177025;27;20004;-79
2024/04/21 09:54:00;;;;;;;9.52;2.97;;;21.80;41.60;;;;;;5176841;27;20005;-78
2024/04/21 09:56:37;;;;;;;9.07;2.92;;;21.60;42.00;;;;;;5196802;27;20019;-78
2024/04/21 09:59:07;;;;;;;6.50;2.97;;;22.00;42.00;;;;;;5168704;27;20083;-80
2024/04/21 10:01:35;;;;;;;9.75;2.90;;;22.50;41.30;;;;;;5191618;27;20420;-78
2024/04/21 10:04:02;;;;;;;7.75;3.13;;;22.20;41.00;;;;;;5209182;27;20022;-79
2024/04/21 10:06:31;;;;;;;7.28;2.58;;;22.20;41.60;;;;;;5241144;27;20011;-78
2024/04/21 10:09:00;;;;;;;8.50;2.42;;;21.90;41.70;;;;;;5242788;27;20018;-79
2024/04/21 10:11:27;;;;;;;31.90;5.13;;;21.90;42.10;;;;;;5212364;27;20128;-79
2024/04/21 10:13:54;;;;;;;7.23;2.63;;;22.00;41.60;;;;;;5208813;27;20047;-79
2024/04/21 10:16:21;;;;;;;38.38;4.65;;;21.60;42.60;;;;;;5209071;27;20288;-77
2024/04/21 10:18:47;;;;;;;4.65;2.95;;;21.00;43.20;;;;;;5209415;27;20008;-77
2024/04/21 10:21:14;;;;;;;10.10;3.90;;;20.40;44.00;;;;;;5208215;27;20018;-77
2024/04/21 10:23:40;;;;;;;6.40;2.72;;;19.90;44.90;;;;;;5209374;27;20015;-80
2024/04/21 10:26:08;;;;;;;3.30;2.50;;;19.40;46.00;;;;;;5180233;27;20430;-75
2024/04/21 10:28:33;;;;;;;7.15;2.40;;;19.30;45.90;;;;;;5209071;27;20101;-78
2024/04/21 10:31:04;;;;;;;6.88;2.70;;;19.10;46.30;;;;;;5207504;27;20417;-79
2024/04/21 10:33:30;;;;;;;10.98;2.72;;;18.60;47.30;;;;;;5157851;27;20003;-81
2024/04/21 10:35:55;;;;;;;6.38;3.13;;;18.50;47.70;;;;;;5158148;27;20785;-79
2024/04/21 10:38:21;;;;;;;6.63;2.70;;;18.40;48.10;;;;;;5202014;27;20004;-78
2024/04/21 10:40:48;;;;;;;35.72;5.93;;;18.20;48.30;;;;;;5209587;27;20007;-79
2024/04/21 10:43:24;;;;;;;7.35;2.13;;;18.10;48.60;;;;;;5181632;27;20003;-80
2024/04/21 10:46:00;;;;;;;12.83;2.77;;;17.90;48.90;;;;;;5188080;27;20008;-79
2024/04/21 10:48:26;;;;;;;5.10;2.40;;;17.60;49.50;;;;;;5183114;27;20240;-77
2024/04/21 10:50:53;;;;;;;3.85;2.40;;;17.50;50.30;;;;;;5194025;27;20091;-78
2024/04/21 10:53:19;;;;;;;6.38;2.80;;;17.50;50.30;;;;;;5193485;27;20016;-79
2024/04/21 10:55:46;;;;;;;7.75;3.28;;;17.60;50.30;;;;;;5175583;27;20008;-77
2024/04/21 10:58:12;;;;;;;5.85;1.88;;;17.60;50.10;;;;;;5197239;27;20464;-80
2024/04/21 11:00:38;;;;;;;11.57;2.90;;;17.40;50.10;;;;;;5212118;27;20035;-77
2024/04/21 11:03:05;;;;;;;3.90;2.10;;;17.20;50.70;;;;;;5212039;27;20528;-78
2024/04/21 11:05:45;;;;;;;4.30;2.60;;;17.10;51.30;;;;;;5230998;27;20003;-79
2024/04/21 11:08:11;;;;;;;7.05;2.70;;;17.00;51.60;;;;;;5210314;27;20028;-77
2024/04/21 11:10:37;;;;;;;5.53;2.58;;;16.90;51.80;;;;;;5180802;27;20014;-79
2024/04/21 11:13:06;;;;;;;3.40;2.33;;;16.80;52.20;;;;;;5211578;27;20015;-77
2024/04/21 11:15:39;;;;;;;32.92;4.85;;;16.80;52.00;;;;;;5211613;27;20353;-78
2024/04/21 11:18:05;;;;;;;8.25;2.20;;;16.80;51.70;;;;;;5211725;27;20027;-78
2024/04/21 11:20:31;;;;;;;12.77;3.38;;;16.70;52.80;;;;;;5211822;27;20011;-79
2024/04/21 11:22:57;;;;;;;8.52;2.92;;;16.60;53.80;;;;;;5212086;27;20012;-78
2024/04/21 11:25:23;;;;;;;6.53;2.83;;;16.40;55.70;;;;;;5175762;27;20004;-78
2024/04/21 11:27:50;;;;;;;7.75;2.80;;;15.80;56.50;;;;;;5207734;27;20011;-80
2024/04/21 11:30:24;;;;;;;6.25;2.40;;;15.70;58.30;;;;;;5212030;27;20008;-79
2024/04/21 11:32:51;;;;;;;10.07;2.97;;;15.90;57.00;;;;;;5204446;27;20003;-82
2024/04/21 11:35:20;;;;;;;4.03;2.73;;;16.40;56.50;;;;;;5181833;27;20000;-79
2024/04/21 11:37:47;;;;;;;6.78;2.22;;;16.80;55.60;;;;;;5196977;27;20046;-81
2024/04/21 11:40:13;;;;;;;6.05;2.22;;;17.10;54.80;;;;;;5212969;27;20014;-77
2024/04/21 11:42:44;;;;;;;4.80;1.98;;;17.30;54.20;;;;;;5213024;27;20019;-79
2024/04/21 11:45:10;;;;;;;5.55;1.83;;;17.40;54.60;;;;;;5211711;27;20081;-78
2024/04/21 11:47:36;;;;;;;8.43;3.05;;;17.50;54.70;;;;;;5182332;27;20016;-79
2024/04/21 11:50:02;;;;;;;13.02;2.78;;;17.50;55.50;;;;;;5212081;27;20112;-80
2024/04/21 11:52:27;;;;;;;6.35;2.22;;;17.70;53.80;;;;;;5198200;27;20029;-79
2024/04/21 11:54:53;;;;;;;8.95;2.85;;;17.70;53.40;;;;;;5156581;27;20475;-80
2024/04/21 11:57:20;;;;;;;5.05;2.13;;;17.70;52.80;;;;;;5216556;27;20004;-80
2024/04/21 11:59:46;;;;;;;12.20;3.13;;;17.70;52.40;;;;;;5183805;27;20405;-78
2024/04/21 12:02:12;;;;;;;7.13;2.70;;;17.80;52.30;;;;;;5211392;27;20004;-80
2024/04/21 12:04:37;;;;;;;6.97;2.50;;;17.80;52.20;;;;;;5218190;27;20018;-80
2024/04/21 12:07:04;;;;;;;5.40;2.33;;;17.80;51.60;;;;;;5228133;27;20003;-82
2024/04/21 12:09:30;;;;;;;6.60;2.40;;;17.80;51.70;;;;;;5181902;27;20056;-78
2024/04/21 12:11:56;;;;;;;9.75;2.35;;;17.90;51.80;;;;;;5210992;27;20007;-80
2024/04/21 12:14:26;;;;;;;6.03;2.58;;;18.00;51.30;;;;;;5211046;27;20074;-83
2024/04/21 12:16:53;;;;;;;5.65;2.60;;;18.10;51.60;;;;;;5211730;27;20014;-82
2024/04/21 12:19:19;;;;;;;;;;;18.20;50.60;;;;;;5197347;27;20075;-81
2024/04/21 12:21:45;;;;;;;10.07;2.30;;;18.20;50.90;;;;;;5210339;27;20261;-82
2024/04/21 12:24:10;;;;;;;10.20;2.63;;;18.20;51.50;;;;;;5211586;27;20086;-82
2024/04/21 12:26:36;;;;;;;9.02;2.30;;;18.20;51.90;;;;;;5212142;27;20004;-81
2024/04/21 12:29:02;;;;;;;10.52;2.85;;;18.10;51.10;;;;;;5211663;27;20048;-81
2024/04/21 12:31:28;;;;;;;7.68;2.78;;;18.00;51.00;;;;;;5180009;27;20010;-81
2024/04/21 12:33:53;;;;;;;8.85;2.78;;;18.00;51.50;;;;;;5212081;27;20015;-81
2024/04/21 12:36:19;;;;;;;8.88;2.70;;;18.10;51.70;;;;;;5206181;27;20016;-84
2024/04/21 12:38:45;;;;;;;16.33;3.45;;;18.10;51.90;;;;;;5210493;27;20082;-87
2024/04/21 12:41:11;;;;;;;17.88;2.95;;;18.00;52.30;;;;;;5214095;27;20012;-85
2024/04/21 12:43:37;;;;;;;6.78;2.50;;;18.00;52.50;;;;;;5190444;27;20039;-86
2024/04/21 12:46:02;;;;;;;10.45;2.50;;;17.90;52.80;;;;;;5214963;27;20516;-86
2024/04/21 12:48:28;;;;;;;5.25;2.47;;;18.00;52.60;;;;;;5218513;27;20377;-85
2024/04/21 12:50:55;;;;;;;7.30;2.83;;;18.00;52.50;;;;;;5234418;27;19996;-85
2024/04/21 12:53:21;;;;;;;8.40;2.60;;;17.90;52.50;;;;;;5229079;27;20039;-85
2024/04/21 12:55:47;;;;;;;9.90;3.65;;;17.70;52.70;;;;;;5208143;27;20083;-85